Weather at Parque Central Heliport

Public forecast

Using degrees Celsius for public forecast. Weather courtesy of forecast.io.

Closest aviation weather report (METAR) to Parque Central Heliport

Closest report is Generalissimo Francisco de Miranda Air Base, 3.5 nm (6.6 km) ESE. Retrieved 2021/08/04 06:03 UTC (20 minutes ago):

SVFM 040603Z AUTO 11002KT NCD 21/17 Q1019

Closest aviation forecast (TAF) to Parque Central Heliport

Closest forecast is Simón Bolívar International Airport, 8.0 nm (14.9 km) NW. Retrieved 2021/08/04 06:00 UTC (23 minutes ago):

TAF SVMI 040400Z 0406/0506 00000KT 9999 FEW016 TX32/0418Z TN21/0407Z TEMPO 0406/0410 CAVOK FM041100 00000KT 9999 FEW016